Terminal Aerodrome Forecast
Issued by NWS North Platte, NE

Home | Current Version | Previous Version | Text Only | Print | Product List | Glossary On
Versions: 1 2 3 4 5 6 7 8 9 10 11 12 13 14 15 16 17 18
000
FTUS43 KLBF 300521
TAFLBF
TAF
KLBF 300521Z 3006/0106 04014KT 4SM RA BR OVC010
      TEMPO 3006/3008 2SM -RASN OVC007
     FM300800 02012KT 1SM -SN BR OVC005
     FM301500 01014G23KT 2SM -RASN BR OVC004
     FM301800 01015G23KT 4SM -RA BR OVC007
     FM302200 01015G22KT P6SM -RA OVC012
     FM010100 36011G19KT P6SM OVC012=

USA.gov is the U.S. government's official web portal to all federal, state and local government web resources and services.